sensor_id;sensor_type;location;lat;lon;timestamp;temperature;humidity
14357;DHT22;7262;48.764;9.166;2024-01-16T00:00:06;0.10;99.90
14357;DHT22;7262;48.764;9.166;2024-01-16T00:02:35;0.20;99.90
14357;DHT22;7262;48.764;9.166;2024-01-16T00:05:03;0.20;99.90
14357;DHT22;7262;48.764;9.166;2024-01-16T00:07:29;0.20;99.90
14357;DHT22;7262;48.764;9.166;2024-01-16T00:09:57;0.20;99.90
14357;DHT22;7262;48.764;9.166;2024-01-16T00:12:24;0.20;99.90
14357;DHT22;7262;48.764;9.166;2024-01-16T00:14:52;0.20;99.90
14357;DHT22;7262;48.764;9.166;2024-01-16T00:17:19;0.20;99.90
14357;DHT22;7262;48.764;9.166;2024-01-16T00:19:47;0.10;99.90
14357;DHT22;7262;48.764;9.166;2024-01-16T00:22:14;0.10;99.90
14357;DHT22;7262;48.764;9.166;2024-01-16T00:24:41;0.10;99.90
14357;DHT22;7262;48.764;9.166;2024-01-16T00:27:07;0.10;99.90
14357;DHT22;7262;48.764;9.166;2024-01-16T00:29:36;0.10;99.90
14357;DHT22;7262;48.764;9.166;2024-01-16T00:32:04;0.10;99.90
14357;DHT22;7262;48.764;9.166;2024-01-16T00:34:35;0.10;99.90
14357;DHT22;7262;48.764;9.166;2024-01-16T00:37:03;0.10;99.90
14357;DHT22;7262;48.764;9.166;2024-01-16T00:39:30;0.00;99.90
14357;DHT22;7262;48.764;9.166;2024-01-16T00:41:58;0.00;99.90
14357;DHT22;7262;48.764;9.166;2024-01-16T00:44:25;-0.10;99.90
14357;DHT22;7262;48.764;9.166;2024-01-16T00:46:52;-0.10;99.90
14357;DHT22;7262;48.764;9.166;2024-01-16T00:49:18;-0.10;99.90
14357;DHT22;7262;48.764;9.166;2024-01-16T00:51:45;-0.10;99.90
14357;DHT22;7262;48.764;9.166;2024-01-16T00:54:14;-0.10;99.90
14357;DHT22;7262;48.764;9.166;2024-01-16T00:56:41;0.00;99.90
14357;DHT22;7262;48.764;9.166;2024-01-16T00:59:08;0.00;99.90
14357;DHT22;7262;48.764;9.166;2024-01-16T01:01:36;0.00;99.90
14357;DHT22;7262;48.764;9.166;2024-01-16T01:04:03;0.10;99.90
14357;DHT22;7262;48.764;9.166;2024-01-16T01:06:30;0.10;99.90
14357;DHT22;7262;48.764;9.166;2024-01-16T01:08:57;0.10;99.90
14357;DHT22;7262;48.764;9.166;2024-01-16T01:11:26;0.10;99.90
14357;DHT22;7262;48.764;9.166;2024-01-16T01:13:53;0.10;99.90
14357;DHT22;7262;48.764;9.166;2024-01-16T01:16:21;0.10;99.90
14357;DHT22;7262;48.764;9.166;2024-01-16T01:18:48;0.10;99.90
14357;DHT22;7262;48.764;9.166;2024-01-16T01:21:16;0.10;99.90
14357;DHT22;7262;48.764;9.166;2024-01-16T01:23:43;0.10;99.90
14357;DHT22;7262;48.764;9.166;2024-01-16T01:26:10;0.10;99.90
14357;DHT22;7262;48.764;9.166;2024-01-16T01:28:40;0.10;99.90
14357;DHT22;7262;48.764;9.166;2024-01-16T01:31:08;0.10;99.90
14357;DHT22;7262;48.764;9.166;2024-01-16T01:33:35;0.10;99.90
14357;DHT22;7262;48.764;9.166;2024-01-16T01:36:02;0.10;99.90
14357;DHT22;7262;48.764;9.166;2024-01-16T01:38:29;0.10;99.90
14357;DHT22;7262;48.764;9.166;2024-01-16T01:40:56;0.00;99.90
14357;DHT22;7262;48.764;9.166;2024-01-16T01:43:23;0.00;99.90
14357;DHT22;7262;48.764;9.166;2024-01-16T01:45:56;0.10;99.90
14357;DHT22;7262;48.764;9.166;2024-01-16T01:48:26;0.10;99.90
14357;DHT22;7262;48.764;9.166;2024-01-16T01:50:53;0.10;99.90
14357;DHT22;7262;48.764;9.166;2024-01-16T01:53:20;0.10;99.90
14357;DHT22;7262;48.764;9.166;2024-01-16T01:55:47;0.10;99.90
14357;DHT22;7262;48.764;9.166;2024-01-16T01:58:16;0.20;99.90
14357;DHT22;7262;48.764;9.166;2024-01-16T02:00:43;0.10;99.90
14357;DHT22;7262;48.764;9.166;2024-01-16T02:03:18;0.10;99.90
14357;DHT22;7262;48.764;9.166;2024-01-16T02:05:46;0.10;99.90
14357;DHT22;7262;48.764;9.166;2024-01-16T02:08:12;0.10;99.90
14357;DHT22;7262;48.764;9.166;2024-01-16T02:10:39;0.00;99.90
14357;DHT22;7262;48.764;9.166;2024-01-16T02:13:09;-0.10;99.90
14357;DHT22;7262;48.764;9.166;2024-01-16T02:15:36;-0.20;99.90
14357;DHT22;7262;48.764;9.166;2024-01-16T02:18:04;-0.20;99.90
14357;DHT22;7262;48.764;9.166;2024-01-16T02:20:33;-0.20;99.90
14357;DHT22;7262;48.764;9.166;2024-01-16T02:23:00;-0.30;99.90
14357;DHT22;7262;48.764;9.166;2024-01-16T02:25:31;-0.30;99.90
14357;DHT22;7262;48.764;9.166;2024-01-16T02:27:59;-0.30;99.90
14357;DHT22;7262;48.764;9.166;2024-01-16T02:30:26;-0.40;99.90
14357;DHT22;7262;48.764;9.166;2024-01-16T02:32:53;-0.40;99.90
14357;DHT22;7262;48.764;9.166;2024-01-16T02:35:20;-0.40;99.90
14357;DHT22;7262;48.764;9.166;2024-01-16T02:37:47;-0.40;99.90
14357;DHT22;7262;48.764;9.166;2024-01-16T02:40:14;-0.50;99.90
14357;DHT22;7262;48.764;9.166;2024-01-16T02:42:42;-0.60;99.90
14357;DHT22;7262;48.764;9.166;2024-01-16T02:45:09;-0.60;99.90
14357;DHT22;7262;48.764;9.166;2024-01-16T02:47:36;-0.60;99.90
14357;DHT22;7262;48.764;9.166;2024-01-16T02:50:03;-0.60;99.90
14357;DHT22;7262;48.764;9.166;2024-01-16T02:52:30;-0.70;99.90
14357;DHT22;7262;48.764;9.166;2024-01-16T02:54:58;-0.70;99.90
14357;DHT22;7262;48.764;9.166;2024-01-16T02:57:25;-0.80;99.90
14357;DHT22;7262;48.764;9.166;2024-01-16T02:59:53;-0.80;99.90
14357;DHT22;7262;48.764;9.166;2024-01-16T03:02:20;-0.80;99.90
14357;DHT22;7262;48.764;9.166;2024-01-16T03:04:48;-0.90;99.90
14357;DHT22;7262;48.764;9.166;2024-01-16T03:07:15;-0.90;99.90
14357;DHT22;7262;48.764;9.166;2024-01-16T03:09:42;-0.90;99.90
14357;DHT22;7262;48.764;9.166;2024-01-16T03:12:09;-1.00;99.90
14357;DHT22;7262;48.764;9.166;2024-01-16T03:14:36;-1.00;99.90
14357;DHT22;7262;48.764;9.166;2024-01-16T03:17:05;-1.00;99.90
14357;DHT22;7262;48.764;9.166;2024-01-16T03:19:32;-1.10;99.90
14357;DHT22;7262;48.764;9.166;2024-01-16T03:22:00;-1.10;99.90
14357;DHT22;7262;48.764;9.166;2024-01-16T03:24:27;-1.10;99.90
14357;DHT22;7262;48.764;9.166;2024-01-16T03:26:54;-1.20;99.90
14357;DHT22;7262;48.764;9.166;2024-01-16T03:29:20;-1.20;99.90
14357;DHT22;7262;48.764;9.166;2024-01-16T03:31:47;-1.20;99.90
14357;DHT22;7262;48.764;9.166;2024-01-16T03:34:16;-1.20;99.90
14357;DHT22;7262;48.764;9.166;2024-01-16T03:36:42;-1.20;99.90
14357;DHT22;7262;48.764;9.166;2024-01-16T03:39:09;-1.30;99.90
14357;DHT22;7262;48.764;9.166;2024-01-16T03:41:38;-1.30;99.90
14357;DHT22;7262;48.764;9.166;2024-01-16T03:44:05;-1.40;99.90
14357;DHT22;7262;48.764;9.166;2024-01-16T03:46:32;-1.50;99.90
14357;DHT22;7262;48.764;9.166;2024-01-16T03:48:59;-1.50;99.90
14357;DHT22;7262;48.764;9.166;2024-01-16T03:51:27;-1.50;99.90
14357;DHT22;7262;48.764;9.166;2024-01-16T03:53:56;-1.50;99.90
14357;DHT22;7262;48.764;9.166;2024-01-16T03:56:23;-1.50;99.90
14357;DHT22;7262;48.764;9.166;2024-01-16T03:58:50;-1.60;99.90
14357;DHT22;7262;48.764;9.166;2024-01-16T04:01:17;-1.60;99.90
14357;DHT22;7262;48.764;9.166;2024-01-16T04:03:44;-1.70;99.90
14357;DHT22;7262;48.764;9.166;2024-01-16T04:06:14;-1.60;99.90
14357;DHT22;7262;48.764;9.166;2024-01-16T04:08:43;-1.60;99.90
14357;DHT22;7262;48.764;9.166;2024-01-16T04:11:11;-1.60;99.90
14357;DHT22;7262;48.764;9.166;2024-01-16T04:13:40;-1.70;99.90
14357;DHT22;7262;48.764;9.166;2024-01-16T04:16:07;-1.70;99.90
14357;DHT22;7262;48.764;9.166;2024-01-16T04:18:35;-1.60;99.90
14357;DHT22;7262;48.764;9.166;2024-01-16T04:21:03;-1.80;99.90
14357;DHT22;7262;48.764;9.166;2024-01-16T04:23:29;-1.80;99.90
14357;DHT22;7262;48.764;9.166;2024-01-16T04:25:58;-1.80;99.90
14357;DHT22;7262;48.764;9.166;2024-01-16T04:28:25;-1.90;99.90
14357;DHT22;7262;48.764;9.166;2024-01-16T04:30:52;-1.90;99.90
14357;DHT22;7262;48.764;9.166;2024-01-16T04:33:18;-1.90;99.90
14357;DHT22;7262;48.764;9.166;2024-01-16T04:35:45;-1.90;99.90
14357;DHT22;7262;48.764;9.166;2024-01-16T04:38:12;-1.90;99.90
14357;DHT22;7262;48.764;9.166;2024-01-16T04:40:39;-2.00;99.90
14357;DHT22;7262;48.764;9.166;2024-01-16T04:43:07;-2.10;99.90
14357;DHT22;7262;48.764;9.166;2024-01-16T04:45:34;-2.00;99.90
14357;DHT22;7262;48.764;9.166;2024-01-16T04:48:05;-2.10;99.90
14357;DHT22;7262;48.764;9.166;2024-01-16T04:50:33;-2.10;99.90
14357;DHT22;7262;48.764;9.166;2024-01-16T04:53:00;-2.10;99.90
14357;DHT22;7262;48.764;9.166;2024-01-16T04:55:28;-2.00;99.90
14357;DHT22;7262;48.764;9.166;2024-01-16T04:57:55;-2.00;99.90
14357;DHT22;7262;48.764;9.166;2024-01-16T05:00:23;-2.10;99.90
14357;DHT22;7262;48.764;9.166;2024-01-16T05:02:50;-2.10;99.90
14357;DHT22;7262;48.764;9.166;2024-01-16T05:05:18;-2.10;99.90
14357;DHT22;7262;48.764;9.166;2024-01-16T05:07:45;-2.10;99.90
14357;DHT22;7262;48.764;9.166;2024-01-16T05:10:12;-2.20;99.90
14357;DHT22;7262;48.764;9.166;2024-01-16T05:12:41;-2.30;99.90
14357;DHT22;7262;48.764;9.166;2024-01-16T05:15:09;-2.20;99.90
14357;DHT22;7262;48.764;9.166;2024-01-16T05:17:40;-2.30;99.90
14357;DHT22;7262;48.764;9.166;2024-01-16T05:20:07;-2.30;99.90
14357;DHT22;7262;48.764;9.166;2024-01-16T05:22:35;-2.30;99.90
14357;DHT22;7262;48.764;9.166;2024-01-16T05:25:04;-2.30;99.90
14357;DHT22;7262;48.764;9.166;2024-01-16T05:27:32;-2.50;99.90
14357;DHT22;7262;48.764;9.166;2024-01-16T05:29:59;-2.50;99.90
14357;DHT22;7262;48.764;9.166;2024-01-16T05:32:26;-2.40;99.90
14357;DHT22;7262;48.764;9.166;2024-01-16T05:34:54;-2.50;99.90
14357;DHT22;7262;48.764;9.166;2024-01-16T05:37:21;-2.50;99.90
14357;DHT22;7262;48.764;9.166;2024-01-16T05:39:49;-2.40;99.90
14357;DHT22;7262;48.764;9.166;2024-01-16T05:42:16;-2.50;99.90
14357;DHT22;7262;48.764;9.166;2024-01-16T05:44:43;-2.50;99.90
14357;DHT22;7262;48.764;9.166;2024-01-16T05:47:10;-2.40;99.90
14357;DHT22;7262;48.764;9.166;2024-01-16T05:49:37;-2.40;99.90
14357;DHT22;7262;48.764;9.166;2024-01-16T05:52:05;-2.50;99.90
14357;DHT22;7262;48.764;9.166;2024-01-16T05:54:32;-2.40;99.90
14357;DHT22;7262;48.764;9.166;2024-01-16T05:56:59;-2.40;99.90
14357;DHT22;7262;48.764;9.166;2024-01-16T05:59:26;-2.30;99.90
14357;DHT22;7262;48.764;9.166;2024-01-16T06:01:53;-2.30;99.90
14357;DHT22;7262;48.764;9.166;2024-01-16T06:04:20;-2.20;99.90
14357;DHT22;7262;48.764;9.166;2024-01-16T06:06:47;-2.20;99.90
14357;DHT22;7262;48.764;9.166;2024-01-16T06:09:16;-2.10;99.90
14357;DHT22;7262;48.764;9.166;2024-01-16T06:11:45;-2.20;99.90
14357;DHT22;7262;48.764;9.166;2024-01-16T06:14:13;-2.10;99.90
14357;DHT22;7262;48.764;9.166;2024-01-16T06:16:46;-2.10;99.90
14357;DHT22;7262;48.764;9.166;2024-01-16T06:19:13;-2.00;99.90
14357;DHT22;7262;48.764;9.166;2024-01-16T06:21:40;-2.00;99.90
14357;DHT22;7262;48.764;9.166;2024-01-16T06:24:07;-2.00;99.90
14357;DHT22;7262;48.764;9.166;2024-01-16T06:26:38;-1.90;99.90
14357;DHT22;7262;48.764;9.166;2024-01-16T06:29:05;-2.00;99.90
14357;DHT22;7262;48.764;9.166;2024-01-16T06:31:33;-2.00;99.90
14357;DHT22;7262;48.764;9.166;2024-01-16T06:34:01;-2.00;99.90
14357;DHT22;7262;48.764;9.166;2024-01-16T06:36:27;-2.00;99.90
14357;DHT22;7262;48.764;9.166;2024-01-16T06:38:54;-2.00;99.90
14357;DHT22;7262;48.764;9.166;2024-01-16T06:41:21;-1.90;99.90
14357;DHT22;7262;48.764;9.166;2024-01-16T06:43:50;-2.00;99.90
14357;DHT22;7262;48.764;9.166;2024-01-16T06:46:17;-1.90;99.90
14357;DHT22;7262;48.764;9.166;2024-01-16T06:48:43;-1.90;99.90
14357;DHT22;7262;48.764;9.166;2024-01-16T06:51:11;-1.80;99.90
14357;DHT22;7262;48.764;9.166;2024-01-16T06:53:39;-1.90;99.90
14357;DHT22;7262;48.764;9.166;2024-01-16T06:56:06;-1.90;99.90
14357;DHT22;7262;48.764;9.166;2024-01-16T06:58:34;-1.90;99.90
14357;DHT22;7262;48.764;9.166;2024-01-16T07:01:03;-1.90;99.90
14357;DHT22;7262;48.764;9.166;2024-01-16T07:03:30;-1.90;99.90
14357;DHT22;7262;48.764;9.166;2024-01-16T07:05:57;-1.80;99.90
14357;DHT22;7262;48.764;9.166;2024-01-16T07:08:24;-1.80;99.90
14357;DHT22;7262;48.764;9.166;2024-01-16T07:10:50;-1.80;99.90
14357;DHT22;7262;48.764;9.166;2024-01-16T07:13:18;-1.80;99.90
14357;DHT22;7262;48.764;9.166;2024-01-16T07:15:45;-1.70;99.90
14357;DHT22;7262;48.764;9.166;2024-01-16T07:37:03;-1.60;99.90
14357;DHT22;7262;48.764;9.166;2024-01-16T07:39:32;-1.60;99.90
14357;DHT22;7262;48.764;9.166;2024-01-16T07:41:59;-1.60;99.90
14357;DHT22;7262;48.764;9.166;2024-01-16T07:44:29;-1.60;99.90
14357;DHT22;7262;48.764;9.166;2024-01-16T07:52:06;-1.40;99.90
14357;DHT22;7262;48.764;9.166;2024-01-16T07:57:09;-1.40;99.90
14357;DHT22;7262;48.764;9.166;2024-01-16T07:59:37;-1.30;99.90
14357;DHT22;7262;48.764;9.166;2024-01-16T08:02:04;-1.30;99.90
14357;DHT22;7262;48.764;9.166;2024-01-16T08:04:31;-1.10;99.90
14357;DHT22;7262;48.764;9.166;2024-01-16T08:06:58;-1.20;99.90
14357;DHT22;7262;48.764;9.166;2024-01-16T08:09:26;-1.10;99.90
14357;DHT22;7262;48.764;9.166;2024-01-16T08:11:53;-1.10;99.90
14357;DHT22;7262;48.764;9.166;2024-01-16T08:14:20;-0.90;99.90
14357;DHT22;7262;48.764;9.166;2024-01-16T08:16:47;-0.90;99.90
14357;DHT22;7262;48.764;9.166;2024-01-16T08:19:14;-0.90;99.90
14357;DHT22;7262;48.764;9.166;2024-01-16T08:21:41;-0.90;99.90
14357;DHT22;7262;48.764;9.166;2024-01-16T08:24:07;-0.80;99.90
14357;DHT22;7262;48.764;9.166;2024-01-16T08:26:37;-0.70;99.90
14357;DHT22;7262;48.764;9.166;2024-01-16T08:29:05;-0.70;99.90
14357;DHT22;7262;48.764;9.166;2024-01-16T08:31:32;-0.60;99.90
14357;DHT22;7262;48.764;9.166;2024-01-16T08:34:04;-0.40;99.90
14357;DHT22;7262;48.764;9.166;2024-01-16T08:36:31;-0.30;99.90
14357;DHT22;7262;48.764;9.166;2024-01-16T08:44:11;-0.30;99.90
14357;DHT22;7262;48.764;9.166;2024-01-16T08:46:37;-0.20;99.90
14357;DHT22;7262;48.764;9.166;2024-01-16T08:49:04;-0.30;99.90
14357;DHT22;7262;48.764;9.166;2024-01-16T08:51:34;-0.20;99.90
14357;DHT22;7262;48.764;9.166;2024-01-16T08:54:01;-0.20;99.90
14357;DHT22;7262;48.764;9.166;2024-01-16T08:56:28;-0.10;99.90
14357;DHT22;7262;48.764;9.166;2024-01-16T08:58:55;-0.10;99.90
14357;DHT22;7262;48.764;9.166;2024-01-16T09:01:23;0.00;99.90
14357;DHT22;7262;48.764;9.166;2024-01-16T09:03:50;0.00;99.90
14357;DHT22;7262;48.764;9.166;2024-01-16T09:06:17;0.00;99.90
14357;DHT22;7262;48.764;9.166;2024-01-16T09:08:44;0.10;99.90
14357;DHT22;7262;48.764;9.166;2024-01-16T09:11:11;0.10;99.90
14357;DHT22;7262;48.764;9.166;2024-01-16T09:13:38;0.00;99.90
14357;DHT22;7262;48.764;9.166;2024-01-16T09:16:05;0.00;99.90
14357;DHT22;7262;48.764;9.166;2024-01-16T09:18:33;0.20;99.90
14357;DHT22;7262;48.764;9.166;2024-01-16T09:21:00;0.40;99.90
14357;DHT22;7262;48.764;9.166;2024-01-16T09:23:27;0.30;99.90
14357;DHT22;7262;48.764;9.166;2024-01-16T09:25:54;0.40;99.90
14357;DHT22;7262;48.764;9.166;2024-01-16T09:28:21;0.50;99.90
14357;DHT22;7262;48.764;9.166;2024-01-16T09:36:01;0.60;99.90
14357;DHT22;7262;48.764;9.166;2024-01-16T09:38:29;0.70;99.90
14357;DHT22;7262;48.764;9.166;2024-01-16T09:40:56;0.70;99.90
14357;DHT22;7262;48.764;9.166;2024-01-16T09:43:25;0.70;99.90
14357;DHT22;7262;48.764;9.166;2024-01-16T09:45:54;0.70;99.90
14357;DHT22;7262;48.764;9.166;2024-01-16T09:48:22;0.80;99.90
14357;DHT22;7262;48.764;9.166;2024-01-16T09:50:49;0.90;99.90
14357;DHT22;7262;48.764;9.166;2024-01-16T09:53:17;1.10;99.90
14357;DHT22;7262;48.764;9.166;2024-01-16T10:14:32;1.80;99.90
14357;DHT22;7262;48.764;9.166;2024-01-16T10:17:02;1.80;99.90
14357;DHT22;7262;48.764;9.166;2024-01-16T10:19:31;1.90;99.90
14357;DHT22;7262;48.764;9.166;2024-01-16T10:22:01;2.30;99.90
14357;DHT22;7262;48.764;9.166;2024-01-16T10:24:28;2.70;99.90
14357;DHT22;7262;48.764;9.166;2024-01-16T10:26:57;2.80;99.90
14357;DHT22;7262;48.764;9.166;2024-01-16T10:29:25;3.10;99.90
14357;DHT22;7262;48.764;9.166;2024-01-16T10:32:01;3.10;99.90
14357;DHT22;7262;48.764;9.166;2024-01-16T10:34:28;3.40;99.90
14357;DHT22;7262;48.764;9.166;2024-01-16T10:36:58;3.20;99.90
14357;DHT22;7262;48.764;9.166;2024-01-16T10:39:25;3.30;99.90
14357;DHT22;7262;48.764;9.166;2024-01-16T10:41:56;3.20;99.90
14357;DHT22;7262;48.764;9.166;2024-01-16T10:54:52;3.40;99.90
14357;DHT22;7262;48.764;9.166;2024-01-16T10:57:21;3.30;99.90
14357;DHT22;7262;48.764;9.166;2024-01-16T11:02:24;3.10;99.90
14357;DHT22;7262;48.764;9.166;2024-01-16T11:04:57;3.20;99.90
14357;DHT22;7262;48.764;9.166;2024-01-16T11:07:24;3.10;99.90
14357;DHT22;7262;48.764;9.166;2024-01-16T11:09:54;3.10;99.90
14357;DHT22;7262;48.764;9.166;2024-01-16T11:12:21;3.20;99.90
14357;DHT22;7262;48.764;9.166;2024-01-16T11:14:48;3.30;99.90
14357;DHT22;7262;48.764;9.166;2024-01-16T11:17:16;3.50;99.90
14357;DHT22;7262;48.764;9.166;2024-01-16T11:56:06;7.30;99.90
14357;DHT22;7262;48.764;9.166;2024-01-16T11:58:41;6.30;99.90
14357;DHT22;7262;48.764;9.166;2024-01-16T12:01:12;5.60;99.90
14357;DHT22;7262;48.764;9.166;2024-01-16T12:03:40;5.10;99.90
14357;DHT22;7262;48.764;9.166;2024-01-16T12:06:08;4.70;99.90
14357;DHT22;7262;48.764;9.166;2024-01-16T12:08:34;4.40;99.90
14357;DHT22;7262;48.764;9.166;2024-01-16T12:11:05;4.10;99.90
14357;DHT22;7262;48.764;9.166;2024-01-16T12:13:32;3.80;99.90
14357;DHT22;7262;48.764;9.166;2024-01-16T12:15:59;3.60;99.90
14357;DHT22;7262;48.764;9.166;2024-01-16T12:18:26;3.40;99.90
14357;DHT22;7262;48.764;9.166;2024-01-16T12:20:53;3.20;99.90
14357;DHT22;7262;48.764;9.166;2024-01-16T12:23:20;3.30;99.90
14357;DHT22;7262;48.764;9.166;2024-01-16T12:25:51;3.20;99.90
14357;DHT22;7262;48.764;9.166;2024-01-16T12:28:24;3.30;99.90
14357;DHT22;7262;48.764;9.166;2024-01-16T12:30:52;3.30;99.90
14357;DHT22;7262;48.764;9.166;2024-01-16T12:33:21;3.10;99.90
14357;DHT22;7262;48.764;9.166;2024-01-16T12:38:29;3.20;99.90
14357;DHT22;7262;48.764;9.166;2024-01-16T12:40:57;3.10;99.90
14357;DHT22;7262;48.764;9.166;2024-01-16T12:43:28;3.30;99.90
14357;DHT22;7262;48.764;9.166;2024-01-16T12:45:56;3.10;99.90
14357;DHT22;7262;48.764;9.166;2024-01-16T12:48:23;3.00;99.90
14357;DHT22;7262;48.764;9.166;2024-01-16T12:50:50;3.10;99.90
14357;DHT22;7262;48.764;9.166;2024-01-16T12:53:21;3.10;99.90
14357;DHT22;7262;48.764;9.166;2024-01-16T12:55:56;3.30;99.90
14357;DHT22;7262;48.764;9.166;2024-01-16T12:58:32;3.20;99.90
14357;DHT22;7262;48.764;9.166;2024-01-16T13:01:20;3.00;99.90
14357;DHT22;7262;48.764;9.166;2024-01-16T13:19:17;3.50;99.90
14357;DHT22;7262;48.764;9.166;2024-01-16T13:21:45;3.60;99.90
14357;DHT22;7262;48.764;9.166;2024-01-16T13:24:12;3.50;99.90
14357;DHT22;7262;48.764;9.166;2024-01-16T13:26:43;3.70;99.90
14357;DHT22;7262;48.764;9.166;2024-01-16T13:29:10;3.70;99.90
14357;DHT22;7262;48.764;9.166;2024-01-16T13:31:37;3.80;99.90
14357;DHT22;7262;48.764;9.166;2024-01-16T13:34:08;3.90;99.90
14357;DHT22;7262;48.764;9.166;2024-01-16T13:36:36;4.00;99.90
14357;DHT22;7262;48.764;9.166;2024-01-16T13:51:50;6.00;99.90
14357;DHT22;7262;48.764;9.166;2024-01-16T13:54:17;5.40;99.90
14357;DHT22;7262;48.764;9.166;2024-01-16T13:56:44;4.80;99.90
14357;DHT22;7262;48.764;9.166;2024-01-16T13:59:12;4.30;99.90
14357;DHT22;7262;48.764;9.166;2024-01-16T14:01:39;3.90;99.90
14357;DHT22;7262;48.764;9.166;2024-01-16T14:04:05;3.80;99.90
14357;DHT22;7262;48.764;9.166;2024-01-16T14:06:32;3.70;99.90
14357;DHT22;7262;48.764;9.166;2024-01-16T14:09:01;3.70;99.90
14357;DHT22;7262;48.764;9.166;2024-01-16T14:11:29;3.80;99.90
14357;DHT22;7262;48.764;9.166;2024-01-16T14:13:57;3.90;99.90
14357;DHT22;7262;48.764;9.166;2024-01-16T14:16:24;3.60;99.90
14357;DHT22;7262;48.764;9.166;2024-01-16T14:18:50;3.40;99.90
14357;DHT22;7262;48.764;9.166;2024-01-16T14:21:17;3.30;99.90
14357;DHT22;7262;48.764;9.166;2024-01-16T14:23:45;3.20;99.90
14357;DHT22;7262;48.764;9.166;2024-01-16T14:26:13;3.20;99.90
14357;DHT22;7262;48.764;9.166;2024-01-16T14:28:41;3.10;99.90
14357;DHT22;7262;48.764;9.166;2024-01-16T14:31:08;3.00;99.90
14357;DHT22;7262;48.764;9.166;2024-01-16T14:33:35;3.00;99.90
14357;DHT22;7262;48.764;9.166;2024-01-16T14:36:02;2.90;99.90
14357;DHT22;7262;48.764;9.166;2024-01-16T14:38:30;2.90;99.90
14357;DHT22;7262;48.764;9.166;2024-01-16T14:40:57;2.90;99.90
14357;DHT22;7262;48.764;9.166;2024-01-16T14:43:25;2.60;99.90
14357;DHT22;7262;48.764;9.166;2024-01-16T14:45:52;2.60;99.90
14357;DHT22;7262;48.764;9.166;2024-01-16T14:48:19;2.60;99.90
14357;DHT22;7262;48.764;9.166;2024-01-16T14:50:46;2.60;99.90
14357;DHT22;7262;48.764;9.166;2024-01-16T14:53:20;2.50;99.90
14357;DHT22;7262;48.764;9.166;2024-01-16T15:24:33;1.90;99.90
14357;DHT22;7262;48.764;9.166;2024-01-16T15:27:00;1.90;99.90
14357;DHT22;7262;48.764;9.166;2024-01-16T15:29:28;1.60;99.90
14357;DHT22;7262;48.764;9.166;2024-01-16T15:31:55;1.50;99.90
14357;DHT22;7262;48.764;9.166;2024-01-16T15:34:23;1.40;99.90
14357;DHT22;7262;48.764;9.166;2024-01-16T15:42:04;1.20;99.90
14357;DHT22;7262;48.764;9.166;2024-01-16T16:09:07;0.50;99.90
14357;DHT22;7262;48.764;9.166;2024-01-16T16:11:36;0.40;99.90
14357;DHT22;7262;48.764;9.166;2024-01-16T16:14:04;0.30;99.90
14357;DHT22;7262;48.764;9.166;2024-01-16T16:27:22;-0.10;99.90
14357;DHT22;7262;48.764;9.166;2024-01-16T16:29:51;0.00;99.90
14357;DHT22;7262;48.764;9.166;2024-01-16T16:32:18;-0.20;99.90
14357;DHT22;7262;48.764;9.166;2024-01-16T17:48:38;-1.50;99.90
14357;DHT22;7262;48.764;9.166;2024-01-16T17:51:07;-1.50;99.90
14357;DHT22;7262;48.764;9.166;2024-01-16T17:56:09;-1.40;99.90
14357;DHT22;7262;48.764;9.166;2024-01-16T17:58:38;-1.60;99.90
14357;DHT22;7262;48.764;9.166;2024-01-16T18:01:07;-1.60;99.90
14357;DHT22;7262;48.764;9.166;2024-01-16T18:03:36;-1.70;99.90
14357;DHT22;7262;48.764;9.166;2024-01-16T18:06:06;-1.70;99.90
14357;DHT22;7262;48.764;9.166;2024-01-16T18:08:33;-1.80;99.90
14357;DHT22;7262;48.764;9.166;2024-01-16T18:11:03;-1.80;99.90
14357;DHT22;7262;48.764;9.166;2024-01-16T18:13:33;-1.80;99.90
14357;DHT22;7262;48.764;9.166;2024-01-16T18:16:00;-1.80;99.90
14357;DHT22;7262;48.764;9.166;2024-01-16T18:18:30;-1.90;99.90
14357;DHT22;7262;48.764;9.166;2024-01-16T18:20:57;-1.90;99.90
14357;DHT22;7262;48.764;9.166;2024-01-16T18:23:28;-1.90;99.90
14357;DHT22;7262;48.764;9.166;2024-01-16T18:25:57;-1.90;99.90
14357;DHT22;7262;48.764;9.166;2024-01-16T18:28:24;-1.90;99.90
14357;DHT22;7262;48.764;9.166;2024-01-16T18:30:51;-2.00;99.90
14357;DHT22;7262;48.764;9.166;2024-01-16T18:33:24;-2.00;99.90
14357;DHT22;7262;48.764;9.166;2024-01-16T18:35:51;-2.00;99.90
14357;DHT22;7262;48.764;9.166;2024-01-16T18:38:22;-2.00;99.90
14357;DHT22;7262;48.764;9.166;2024-01-16T18:40:49;-2.10;99.90
14357;DHT22;7262;48.764;9.166;2024-01-16T18:43:17;-2.10;99.90
14357;DHT22;7262;48.764;9.166;2024-01-16T18:45:44;-2.10;99.90
14357;DHT22;7262;48.764;9.166;2024-01-16T18:48:13;-2.20;99.90
14357;DHT22;7262;48.764;9.166;2024-01-16T18:50:40;-2.30;99.90
14357;DHT22;7262;48.764;9.166;2024-01-16T18:53:07;-2.30;99.90
14357;DHT22;7262;48.764;9.166;2024-01-16T18:55:34;-2.30;99.90
14357;DHT22;7262;48.764;9.166;2024-01-16T18:58:03;-2.30;99.90
14357;DHT22;7262;48.764;9.166;2024-01-16T19:00:32;-2.30;99.90
14357;DHT22;7262;48.764;9.166;2024-01-16T19:03:01;-2.50;99.90
14357;DHT22;7262;48.764;9.166;2024-01-16T19:05:27;-2.40;99.90
14357;DHT22;7262;48.764;9.166;2024-01-16T19:07:55;-2.50;99.90
14357;DHT22;7262;48.764;9.166;2024-01-16T19:10:23;-2.50;99.90
14357;DHT22;7262;48.764;9.166;2024-01-16T19:12:52;-2.60;99.90
14357;DHT22;7262;48.764;9.166;2024-01-16T19:15:23;-2.60;99.90
14357;DHT22;7262;48.764;9.166;2024-01-16T19:20:24;-2.50;99.90
14357;DHT22;7262;48.764;9.166;2024-01-16T19:22:53;-2.70;99.90
14357;DHT22;7262;48.764;9.166;2024-01-16T19:25:21;-2.70;99.90
14357;DHT22;7262;48.764;9.166;2024-01-16T19:27:51;-2.70;99.90
14357;DHT22;7262;48.764;9.166;2024-01-16T19:30:20;-2.70;99.90
14357;DHT22;7262;48.764;9.166;2024-01-16T19:32:49;-2.80;99.90
14357;DHT22;7262;48.764;9.166;2024-01-16T19:35:16;-2.80;99.90
14357;DHT22;7262;48.764;9.166;2024-01-16T19:37:43;-2.70;99.90
14357;DHT22;7262;48.764;9.166;2024-01-16T19:40:11;-2.90;99.90
14357;DHT22;7262;48.764;9.166;2024-01-16T19:42:41;-2.90;99.90
14357;DHT22;7262;48.764;9.166;2024-01-16T19:45:09;-2.90;99.90
14357;DHT22;7262;48.764;9.166;2024-01-16T19:47:36;-3.00;99.90
14357;DHT22;7262;48.764;9.166;2024-01-16T19:50:07;-2.90;99.90
14357;DHT22;7262;48.764;9.166;2024-01-16T19:52:44;-3.00;99.90
14357;DHT22;7262;48.764;9.166;2024-01-16T19:55:11;-2.90;99.90
14357;DHT22;7262;48.764;9.166;2024-01-16T19:57:40;-3.20;99.90
14357;DHT22;7262;48.764;9.166;2024-01-16T20:00:07;-2.90;99.90
14357;DHT22;7262;48.764;9.166;2024-01-16T20:02:36;-3.10;99.90
14357;DHT22;7262;48.764;9.166;2024-01-16T20:05:07;-3.20;99.90
14357;DHT22;7262;48.764;9.166;2024-01-16T20:07:40;-3.20;99.90
14357;DHT22;7262;48.764;9.166;2024-01-16T20:15:18;-3.20;99.90
14357;DHT22;7262;48.764;9.166;2024-01-16T20:20:24;-3.30;99.90
14357;DHT22;7262;48.764;9.166;2024-01-16T20:22:52;-3.30;99.90
14357;DHT22;7262;48.764;9.166;2024-01-16T20:27:57;-3.20;99.90
14357;DHT22;7262;48.764;9.166;2024-01-16T20:32:59;-3.20;99.90
14357;DHT22;7262;48.764;9.166;2024-01-16T20:35:27;-3.30;99.90
14357;DHT22;7262;48.764;9.166;2024-01-16T20:37:55;-3.30;99.90
14357;DHT22;7262;48.764;9.166;2024-01-16T20:40:22;-3.40;99.90
14357;DHT22;7262;48.764;9.166;2024-01-16T20:42:52;-3.40;99.90
14357;DHT22;7262;48.764;9.166;2024-01-16T20:45:19;-3.30;99.90
14357;DHT22;7262;48.764;9.166;2024-01-16T20:47:49;-3.40;99.90
14357;DHT22;7262;48.764;9.166;2024-01-16T20:50:16;-3.40;99.90
14357;DHT22;7262;48.764;9.166;2024-01-16T20:52:47;-3.30;99.90